createdAt,value
2019-02-19T00:02:41.671Z,96182.06
2019-02-19T00:05:29.635Z,96180.16
2019-02-19T00:08:17.891Z,96179.67
2019-02-19T00:11:05.711Z,96184.44
2019-02-19T00:13:53.739Z,96176.98
2019-02-19T00:16:41.590Z,96183.84
2019-02-19T00:19:29.507Z,96186.01
2019-02-19T00:22:17.551Z,96183.54
2019-02-19T00:25:05.505Z,96191.18
2019-02-19T00:27:53.859Z,96180.55
2019-02-19T00:30:41.491Z,96186.76
2019-02-19T00:33:29.640Z,96187.80
2019-02-19T00:36:17.319Z,96194.96
2019-02-19T00:39:06.043Z,96191.44
2019-02-19T00:41:54.005Z,96198.30
2019-02-19T00:44:41.998Z,96186.31
2019-02-19T00:47:30.109Z,96192.95
2019-02-19T00:50:18.443Z,96184.80
2019-02-19T00:53:06.411Z,96190.87
2019-02-19T00:55:54.415Z,96186.84
2019-02-19T00:58:42.238Z,96191.31
2019-02-19T01:01:30.059Z,96189.92
2019-02-19T01:04:17.793Z,96190.43
2019-02-19T01:07:05.851Z,96191.75
2019-02-19T01:09:54.036Z,96197.69
2019-02-19T01:12:41.646Z,96199.81
2019-02-19T01:15:29.701Z,96195.52
2019-02-19T01:18:17.793Z,96197.84
2019-02-19T01:21:05.833Z,96205.95
2019-02-19T01:23:53.829Z,96201.95
2019-02-19T01:26:41.903Z,96208.52
2019-02-19T01:29:29.872Z,96208.27
2019-02-19T01:32:17.736Z,96211.28
2019-02-19T01:35:05.728Z,96218.27
2019-02-19T01:37:53.649Z,96206.61
2019-02-19T01:40:42.140Z,96208.90
2019-02-19T01:43:29.938Z,96203.78
2019-02-19T01:46:17.527Z,96207.73
2019-02-19T01:49:05.482Z,96213.91
2019-02-19T01:51:53.429Z,96203.63
2019-02-19T01:54:41.725Z,96199.59
2019-02-19T01:57:29.327Z,96206.80
2019-02-19T02:00:17.177Z,96208.14
2019-02-19T02:03:05.566Z,96210.63
2019-02-19T02:05:53.345Z,96217.96
2019-02-19T02:08:41.034Z,96217.47
2019-02-19T02:11:28.701Z,96207.72
2019-02-19T02:14:16.764Z,96208.28
2019-02-19T02:17:04.568Z,96214.88
2019-02-19T02:19:52.180Z,96211.69
2019-02-19T02:22:40.511Z,96213.59
2019-02-19T02:25:28.260Z,96212.56
2019-02-19T02:28:16.010Z,96213.54
2019-02-19T02:31:03.938Z,96211.09
2019-02-19T02:33:51.886Z,96215.77
2019-02-19T02:36:39.758Z,96214.50
2019-02-19T02:39:27.643Z,96215.23
2019-02-19T02:42:15.258Z,96214.16
2019-02-19T02:45:03.492Z,96210.83
2019-02-19T02:47:51.230Z,96209.27
2019-02-19T02:50:39.447Z,96206.54
2019-02-19T02:53:27.688Z,96208.23
2019-02-19T02:56:15.393Z,96212.06
2019-02-19T02:59:03.535Z,96204.03
2019-02-19T03:01:51.673Z,96204.98
2019-02-19T03:04:39.864Z,96203.94
2019-02-19T03:07:40.079Z,96200.31
2019-02-19T03:10:27.921Z,96199.41
2019-02-19T03:13:15.864Z,96205.22
2019-02-19T03:16:03.737Z,96203.64
2019-02-19T03:18:51.974Z,96199.15
2019-02-19T03:21:40.059Z,96196.20
2019-02-19T03:24:27.904Z,96190.44
2019-02-19T03:27:15.431Z,96198.13
2019-02-19T03:30:03.790Z,96203.24
2019-02-19T03:32:51.723Z,96204.82
2019-02-19T03:35:39.688Z,96201.55
2019-02-19T03:38:27.884Z,96211.64
2019-02-19T03:41:16.064Z,96203.14
2019-02-19T03:44:04.296Z,96211.34
2019-02-19T03:46:52.360Z,96211.84
2019-02-19T03:49:40.153Z,96215.38
2019-02-19T03:52:27.748Z,96214.00
2019-02-19T03:55:15.752Z,96208.48
2019-02-19T03:58:03.882Z,96209.28
2019-02-19T04:00:52.133Z,96207.10
2019-02-19T04:03:39.737Z,96205.64
2019-02-19T04:06:27.795Z,96205.95
2019-02-19T04:09:15.677Z,96200.64
2019-02-19T04:12:03.237Z,96200.83
2019-02-19T04:14:51.594Z,96203.92
2019-02-19T04:17:39.722Z,96206.28
2019-02-19T04:20:27.823Z,96207.44
2019-02-19T04:23:15.906Z,96207.67
2019-02-19T04:26:03.817Z,96210.06
2019-02-19T04:28:51.793Z,96209.58
2019-02-19T04:31:39.442Z,96213.67
2019-02-19T04:34:27.408Z,96208.81
2019-02-19T04:37:15.612Z,96213.26
2019-02-19T04:40:03.674Z,96215.48
2019-02-19T04:42:51.719Z,96215.02
2019-02-19T04:45:39.974Z,96218.17
2019-02-19T04:48:28.183Z,96213.44
2019-02-19T04:51:16.136Z,96211.41
2019-02-19T04:54:04.016Z,96209.27
2019-02-19T04:56:52.130Z,96215.80
2019-02-19T04:59:40.023Z,96213.93
2019-02-19T05:02:28.418Z,96218.48
2019-02-19T05:05:16.417Z,96231.42
2019-02-19T05:08:04.634Z,96223.89
2019-02-19T05:10:52.542Z,96229.02
2019-02-19T05:13:40.819Z,96225.56
2019-02-19T05:16:28.901Z,96225.02
2019-02-19T05:19:16.865Z,96229.84
2019-02-19T05:22:04.497Z,96231.45
2019-02-19T05:24:52.253Z,96232.50
2019-02-19T05:27:40.414Z,96233.59
2019-02-19T05:30:28.241Z,96236.81
2019-02-19T05:33:16.546Z,96235.25
2019-02-19T05:36:04.925Z,96243.03
2019-02-19T05:38:53.129Z,96241.16
2019-02-19T05:41:41.059Z,96237.13
2019-02-19T05:44:29.266Z,96245.98
2019-02-19T05:47:17.456Z,96241.95
2019-02-19T05:50:05.875Z,96242.75
2019-02-19T05:52:53.473Z,96240.36
2019-02-19T05:55:41.632Z,96242.75
2019-02-19T05:58:29.602Z,96245.99
2019-02-19T06:01:17.636Z,96245.73
2019-02-19T06:04:05.227Z,96240.36
2019-02-19T06:06:53.348Z,96243.04
2019-02-19T06:09:41.628Z,96249.98
2019-02-19T06:12:29.790Z,96243.05
2019-02-19T06:15:17.646Z,96242.20
2019-02-19T06:18:05.536Z,96241.41
2019-02-19T06:20:53.851Z,96239.56
2019-02-19T06:23:41.746Z,96246.23
2019-02-19T06:26:30.006Z,96244.64
2019-02-19T06:29:17.713Z,96248.38
2019-02-19T06:32:05.578Z,96258.84
2019-02-19T06:34:53.671Z,96254.56
2019-02-19T06:37:41.943Z,96266.34
2019-02-19T06:40:30.349Z,96258.02
2019-02-19T06:43:18.655Z,96260.98
2019-02-19T06:46:06.302Z,96266.05
2019-02-19T06:48:54.174Z,96273.02
2019-02-19T06:51:41.786Z,96273.27
2019-02-19T06:54:29.678Z,96275.38
2019-02-19T06:57:17.604Z,96286.36
2019-02-19T07:00:06.071Z,96285.83
2019-02-19T07:03:20.712Z,96293.60
2019-02-19T07:06:08.240Z,96294.11
2019-02-19T07:08:56.277Z,96298.66
2019-02-19T07:11:44.227Z,96298.14
2019-02-19T07:14:32.469Z,96299.16
2019-02-19T07:17:20.002Z,96301.78
2019-02-19T07:20:07.624Z,96298.03
2019-02-19T07:22:55.941Z,96297.19
2019-02-19T07:25:43.910Z,96298.48
2019-02-19T07:28:31.673Z,96299.64
2019-02-19T07:31:19.591Z,96301.48
2019-02-19T07:34:07.263Z,96299.24
2019-02-19T07:36:55.539Z,96303.19
2019-02-19T07:39:43.323Z,96305.32
2019-02-19T07:42:30.875Z,96307.94
2019-02-19T07:45:18.823Z,96296.30
2019-02-19T07:48:06.651Z,96299.80
2019-02-19T07:50:54.456Z,96305.62
2019-02-19T07:53:42.259Z,96303.28
2019-02-19T07:56:30.149Z,96299.00
2019-02-19T07:59:18.446Z,96299.06
2019-02-19T08:02:06.612Z,96302.14
2019-02-19T08:04:54.574Z,96304.97
2019-02-19T08:07:42.631Z,96302.14
2019-02-19T08:10:30.757Z,96297.80
2019-02-19T08:13:18.895Z,96297.97
2019-02-19T08:16:06.669Z,96299.44
2019-02-19T08:18:54.585Z,96297.61
2019-02-19T08:21:42.440Z,96301.04
2019-02-19T08:24:30.335Z,96303.14
2019-02-19T08:27:18.601Z,96306.59
2019-02-19T08:30:06.950Z,96307.94
2019-02-19T08:32:54.728Z,96318.28
2019-02-19T08:35:42.500Z,96315.55
2019-02-19T08:38:30.364Z,96320.48
2019-02-19T08:41:18.274Z,96317.17
2019-02-19T08:44:08.401Z,96320.47
2019-02-19T08:46:56.032Z,96320.09
2019-02-19T08:49:43.681Z,96318.08
2019-02-19T08:52:31.608Z,96322.64
2019-02-19T08:55:19.225Z,96322.37
2019-02-19T08:58:07.339Z,96319.93
2019-02-19T09:00:55.263Z,96320.92
2019-02-19T09:03:43.454Z,96317.41
2019-02-19T09:06:31.675Z,96309.91
2019-02-19T09:09:19.698Z,96315.84
2019-02-19T09:12:07.666Z,96315.12
2019-02-19T09:14:55.775Z,96318.30
2019-02-19T09:17:51.684Z,96322.47
2019-02-19T09:20:33.430Z,96319.75
2019-02-19T09:23:21.391Z,96320.98
2019-02-19T09:26:09.559Z,96325.00
2019-02-19T09:28:57.554Z,96328.33
2019-02-19T09:34:19.639Z,96321.81
2019-02-19T09:37:08.001Z,96325.50
2019-02-19T09:39:56.286Z,96326.08
2019-02-19T09:42:44.406Z,96322.09
2019-02-19T09:45:32.346Z,96334.50
2019-02-19T09:48:20.646Z,96329.03
2019-02-19T09:51:08.539Z,96329.03
2019-02-19T09:53:56.661Z,96329.67
2019-02-19T09:56:44.563Z,96335.25
2019-02-19T09:59:32.805Z,96328.05
2019-02-19T10:02:21.316Z,96327.49
2019-02-19T10:05:10.461Z,96326.23
2019-02-19T10:07:58.847Z,96326.82
2019-02-19T10:10:46.780Z,96337.37
2019-02-19T10:13:34.788Z,96341.29
2019-02-19T10:16:22.584Z,96341.06
2019-02-19T10:19:10.719Z,96336.27
2019-02-19T10:21:58.350Z,96340.17
2019-02-19T10:24:46.350Z,96345.46
2019-02-19T10:27:34.471Z,96340.42
2019-02-19T10:30:22.367Z,96343.84
2019-02-19T10:33:10.630Z,96347.41
2019-02-19T10:35:58.709Z,96346.22
2019-02-19T10:38:46.811Z,96346.05
2019-02-19T10:41:34.788Z,96349.18
2019-02-19T10:44:22.370Z,96345.00
2019-02-19T10:47:10.458Z,96352.29
2019-02-19T10:49:58.706Z,96346.92
2019-02-19T10:52:46.516Z,96354.59
2019-02-19T10:55:34.470Z,96350.13
2019-02-19T10:58:23.346Z,96344.70
2019-02-19T11:01:11.541Z,96338.39
2019-02-19T11:03:59.737Z,96342.63
2019-02-19T11:06:47.993Z,96338.33
2019-02-19T11:09:36.439Z,96330.00
2019-02-19T11:12:24.782Z,96337.72
2019-02-19T11:15:12.920Z,96331.86
2019-02-19T11:18:00.472Z,96331.75
2019-02-19T11:20:48.662Z,96327.78
2019-02-19T11:23:36.863Z,96330.35
2019-02-19T11:26:24.836Z,96329.75
2019-02-19T11:29:12.975Z,96324.16
2019-02-19T11:32:01.136Z,96319.45
2019-02-19T11:34:49.643Z,96316.94
2019-02-19T11:37:37.587Z,96317.39
2019-02-19T11:40:25.846Z,96309.73
2019-02-19T11:43:13.852Z,96301.48
2019-02-19T11:46:01.905Z,96302.70
2019-02-19T11:48:49.729Z,96294.91
2019-02-19T11:51:37.871Z,96294.67
2019-02-19T11:54:25.437Z,96279.44
2019-02-19T11:57:13.825Z,96275.53
2019-02-19T12:00:01.882Z,96277.61
2019-02-19T12:02:50.151Z,96272.92
2019-02-19T12:05:38.195Z,96271.83
2019-02-19T12:08:26.179Z,96261.33
2019-02-19T12:11:14.623Z,96263.95
2019-02-19T12:14:02.897Z,96266.12
2019-02-19T12:16:50.381Z,96270.49
2019-02-19T12:19:38.597Z,96269.58
2019-02-19T12:22:26.563Z,96268.63
2019-02-19T12:25:14.799Z,96264.64
2019-02-19T12:28:02.928Z,96259.26
2019-02-19T12:30:50.537Z,96251.13
2019-02-19T13:06:36.698Z,96214.92
2019-02-19T14:27:10.997Z,96179.73
2019-02-19T14:30:16.998Z,96187.20
2019-02-19T14:33:33.231Z,96186.80
2019-02-19T14:57:48.992Z,96170.87
2019-02-19T15:00:55.747Z,96163.25
2019-02-19T15:04:11.494Z,96168.15
2019-02-19T15:07:23.941Z,96167.69
2019-02-19T15:10:36.353Z,96166.76
2019-02-19T15:13:37.927Z,96172.39
2019-02-19T15:16:50.755Z,96173.33
2019-02-19T15:19:53.447Z,96172.39
2019-02-19T15:23:02.794Z,96168.50
2019-02-19T15:26:08.799Z,96169.91
2019-02-19T15:29:18.630Z,96162.75
2019-02-19T15:32:17.022Z,96165.83
2019-02-19T15:35:24.962Z,96158.35
2019-02-19T15:38:34.868Z,96159.41
2019-02-19T15:41:41.647Z,96161.50
2019-02-19T15:44:54.055Z,96160.34
2019-02-19T15:48:06.563Z,96151.16
2019-02-19T15:51:25.915Z,96152.72
2019-02-19T15:54:32.576Z,96153.59
2019-02-19T15:57:39.446Z,96154.55
2019-02-19T16:01:04.868Z,96156.09
2019-02-19T16:03:58.564Z,96152.19
2019-02-19T16:07:08.470Z,96154.11
2019-02-19T16:10:01.667Z,96158.77
2019-02-19T16:13:12.051Z,96155.58
2019-02-19T16:16:37.389Z,96146.03
2019-02-19T16:19:43.828Z,96148.33
2019-02-19T16:22:38.624Z,96142.55
2019-02-19T16:25:57.364Z,96133.95
2019-02-19T16:29:08.673Z,96142.00
2019-02-19T16:32:18.500Z,96146.42
2019-02-19T16:35:34.706Z,96142.02
2019-02-19T16:38:40.020Z,96132.03
2019-02-19T16:42:02.295Z,96134.30
2019-02-19T16:45:02.319Z,96132.84
2019-02-19T16:48:24.381Z,96138.82
2019-02-19T16:51:30.842Z,96134.34
2019-02-19T16:54:37.699Z,96146.22
2019-02-19T16:57:36.720Z,96139.01
2019-02-19T17:00:55.268Z,96144.67
2019-02-19T17:04:03.452Z,96149.03
2019-02-19T17:07:13.403Z,96152.63
2019-02-19T17:10:25.954Z,96161.80
2019-02-19T17:13:38.436Z,96156.83
2019-02-19T17:16:45.082Z,96162.95
2019-02-19T17:19:55.046Z,96165.02
2019-02-19T17:23:00.810Z,96166.09
2019-02-19T17:26:07.844Z,96168.96
2019-02-19T17:29:03.633Z,96170.94
2019-02-19T17:32:02.778Z,96174.50
2019-02-19T17:35:01.225Z,96175.73
2019-02-19T17:38:17.341Z,96176.68
2019-02-19T17:41:17.187Z,96179.13
2019-02-19T17:44:10.767Z,96188.13
2019-02-19T17:47:23.364Z,96185.78
2019-02-19T17:50:28.473Z,96190.50
2019-02-19T17:53:47.212Z,96193.56
2019-02-19T17:57:05.705Z,96199.16
2019-02-19T18:00:11.239Z,96205.23
2019-02-19T18:03:11.567Z,96202.50
2019-02-19T18:06:10.737Z,96205.21
2019-02-19T18:09:17.634Z,96201.79
2019-02-19T18:12:23.659Z,96204.94
2019-02-19T18:15:36.599Z,96207.15
2019-02-19T18:18:49.152Z,96207.52
2019-02-19T18:21:37.349Z,96215.37
2019-02-19T18:24:25.576Z,96216.70
2019-02-19T18:27:13.874Z,96222.13
2019-02-19T18:30:01.901Z,96226.03
2019-02-19T18:32:49.976Z,96226.65
2019-02-19T18:35:37.818Z,96236.94
2019-02-19T18:38:26.078Z,96229.32
2019-02-19T18:41:14.118Z,96234.16
2019-02-19T18:44:02.231Z,96234.55
2019-02-19T18:46:50.345Z,96236.51
2019-02-19T18:49:38.487Z,96233.80
2019-02-19T18:52:26.160Z,96237.36
2019-02-19T18:55:14.234Z,96246.71
2019-02-19T18:58:02.083Z,96240.41
2019-02-19T19:00:50.348Z,96240.56
2019-02-19T19:03:38.585Z,96246.33
2019-02-19T19:06:26.940Z,96246.05
2019-02-19T19:09:14.738Z,96244.73
2019-02-19T19:12:02.598Z,96246.75
2019-02-19T19:14:50.397Z,96247.09
2019-02-19T19:17:38.442Z,96246.98
2019-02-19T19:20:26.818Z,96248.42
2019-02-19T19:23:14.816Z,96249.34
2019-02-19T19:26:02.912Z,96250.13
2019-02-19T19:28:50.930Z,96257.19
2019-02-19T19:31:39.052Z,96259.11
2019-02-19T19:34:26.986Z,96260.51
2019-02-19T19:37:15.339Z,96264.52
2019-02-19T19:40:03.234Z,96270.95
2019-02-19T19:42:51.115Z,96269.17
2019-02-19T19:45:39.043Z,96273.84
2019-02-19T19:48:27.013Z,96277.89
2019-02-19T19:51:17.307Z,96278.62
2019-02-19T19:54:04.480Z,96274.94
2019-02-19T19:56:52.666Z,96276.43
2019-02-19T19:59:40.728Z,96281.05
2019-02-19T20:02:28.936Z,96274.94
2019-02-19T20:05:17.146Z,96283.50
2019-02-19T20:08:04.962Z,96283.24
2019-02-19T20:10:53.293Z,96279.84
2019-02-19T20:13:41.338Z,96284.25
2019-02-19T20:16:29.382Z,96280.20
2019-02-19T20:19:17.213Z,96282.48
2019-02-19T20:22:05.072Z,96290.55
2019-02-19T20:24:53.123Z,96284.64
2019-02-19T20:27:41.274Z,96292.23
2019-02-19T20:30:29.265Z,96298.98
2019-02-19T20:33:17.444Z,96295.31
2019-02-19T20:36:05.643Z,96305.47
2019-02-19T20:38:53.895Z,96300.00
2019-02-19T20:41:41.732Z,96303.72
2019-02-19T20:44:29.695Z,96304.77
2019-02-19T20:47:17.662Z,96310.72
2019-02-19T20:50:06.207Z,96308.09
2019-02-19T20:52:54.395Z,96320.04
2019-02-19T20:55:42.645Z,96307.25
2019-02-19T20:58:30.651Z,96319.56
2019-02-19T21:01:18.903Z,96319.56
2019-02-19T21:04:06.902Z,96317.89
2019-02-19T21:06:55.025Z,96306.08
2019-02-19T21:09:44.090Z,96308.17
2019-02-19T21:12:31.975Z,96311.81
2019-02-19T21:15:20.266Z,96314.69
2019-02-19T21:18:08.164Z,96304.19
2019-02-19T21:20:56.337Z,96304.19
2019-02-19T21:23:44.676Z,96303.47
2019-02-19T21:26:32.634Z,96297.87
2019-02-19T21:29:20.604Z,96299.16
2019-02-19T21:32:08.620Z,96302.20
2019-02-19T21:34:57.047Z,96303.92
2019-02-19T21:37:45.191Z,96299.41
2019-02-19T21:40:33.247Z,96302.98
2019-02-19T21:43:21.056Z,96300.69
2019-02-19T21:46:09.374Z,96305.73
2019-02-19T21:48:57.499Z,96297.53
2019-02-19T21:51:53.715Z,96296.48
2019-02-19T21:54:35.123Z,96297.22
2019-02-19T21:57:23.103Z,96303.55
2019-02-19T22:00:13.227Z,96296.14
2019-02-19T22:03:01.189Z,96301.38
2019-02-19T22:05:49.343Z,96301.59
2019-02-19T22:08:37.142Z,96301.18
2019-02-19T22:11:25.108Z,96306.98
2019-02-19T22:14:13.091Z,96308.13
2019-02-19T22:17:01.281Z,96305.68
2019-02-19T22:19:48.913Z,96305.83
2019-02-19T22:22:36.857Z,96301.80
2019-02-19T22:25:24.786Z,96301.80
2019-02-19T22:28:12.965Z,96304.37
2019-02-19T22:31:00.864Z,96303.91
2019-02-19T22:33:49.089Z,96311.90
2019-02-19T22:36:36.855Z,96305.59
2019-02-19T22:39:24.940Z,96298.51
2019-02-19T22:42:12.712Z,96307.90
2019-02-19T22:45:00.677Z,96307.05
2019-02-19T22:47:53.399Z,96309.72
2019-02-19T22:50:37.705Z,96312.27
2019-02-19T22:53:43.532Z,96312.73
2019-02-19T22:56:37.763Z,96310.80
2019-02-19T22:59:25.736Z,96312.94
2019-02-19T23:02:16.982Z,96306.98
2019-02-19T23:05:06.077Z,96309.30
2019-02-19T23:07:54.558Z,96310.29
2019-02-19T23:10:42.907Z,96316.88
2019-02-19T23:13:30.840Z,96308.41
2019-02-19T23:16:19.129Z,96313.09
2019-02-19T23:19:07.124Z,96312.52
2019-02-19T23:21:55.346Z,96317.95
2019-02-19T23:24:43.413Z,96317.17
2019-02-19T23:27:31.302Z,96310.99
2019-02-19T23:30:19.405Z,96320.13
2019-02-19T23:33:07.557Z,96319.03
2019-02-19T23:36:08.386Z,96318.52
2019-02-19T23:38:56.629Z,96318.83
2019-02-19T23:41:44.723Z,96324.59
2019-02-19T23:44:32.551Z,96325.34
2019-02-19T23:47:20.855Z,96328.38
2019-02-19T23:50:09.095Z,96331.98
2019-02-19T23:52:57.639Z,96327.81
2019-02-19T23:55:45.991Z,96325.13
2019-02-19T23:58:34.098Z,96324.55
